sensor_id;sensor_type;location;lat;lon;timestamp;pressure;altitude;pressure_sealevel;temperature;humidity
40788;BME280;26497;52.494;7.546;2023-06-19T00:00:31;100280.72;;;28.16;33.16
40788;BME280;26497;52.494;7.546;2023-06-19T00:02:58;100284.56;;;28.13;33.06
40788;BME280;26497;52.494;7.546;2023-06-19T00:05:25;100277.38;;;28.12;32.55
40788;BME280;26497;52.494;7.546;2023-06-19T00:07:52;100273.94;;;28.10;32.70
40788;BME280;26497;52.494;7.546;2023-06-19T00:10:21;100263.34;;;27.95;33.55
40788;BME280;26497;52.494;7.546;2023-06-19T00:12:48;100265.06;;;27.96;34.05
40788;BME280;26497;52.494;7.546;2023-06-19T00:15:15;100258.28;;;27.91;33.79
40788;BME280;26497;52.494;7.546;2023-06-19T00:17:42;100259.25;;;27.90;34.34
40788;BME280;26497;52.494;7.546;2023-06-19T00:20:10;100258.91;;;27.94;33.58
40788;BME280;26497;52.494;7.546;2023-06-19T00:22:39;100257.53;;;28.00;33.45
40788;BME280;26497;52.494;7.546;2023-06-19T00:25:07;100262.34;;;28.08;33.43
40788;BME280;26497;52.494;7.546;2023-06-19T00:27:35;100258.91;;;27.94;33.83
40788;BME280;26497;52.494;7.546;2023-06-19T00:30:05;100257.03;;;27.95;33.99
40788;BME280;26497;52.494;7.546;2023-06-19T00:32:32;100253.59;;;27.93;34.08
40788;BME280;26497;52.494;7.546;2023-06-19T00:35:07;100254.59;;;27.92;34.34
40788;BME280;26497;52.494;7.546;2023-06-19T00:37:34;100251.03;;;27.91;34.28
40788;BME280;26497;52.494;7.546;2023-06-19T00:40:01;100252.75;;;27.92;34.12
40788;BME280;26497;52.494;7.546;2023-06-19T00:42:29;100252.75;;;27.92;34.31
40788;BME280;26497;52.494;7.546;2023-06-19T00:44:57;100257.19;;;27.82;34.17
40788;BME280;26497;52.494;7.546;2023-06-19T00:47:24;100250.63;;;27.85;34.47
40788;BME280;26497;52.494;7.546;2023-06-19T00:49:52;100250.63;;;27.85;34.63
40788;BME280;26497;52.494;7.546;2023-06-19T00:52:19;100253.63;;;27.81;34.73
40788;BME280;26497;52.494;7.546;2023-06-19T00:54:46;100255.84;;;27.76;34.42
40788;BME280;26497;52.494;7.546;2023-06-19T00:57:13;100254.97;;;27.76;34.92
40788;BME280;26497;52.494;7.546;2023-06-19T00:59:40;100257.81;;;27.74;34.97
40788;BME280;26497;52.494;7.546;2023-06-19T01:02:08;100258.31;;;27.79;34.92
40788;BME280;26497;52.494;7.546;2023-06-19T01:04:36;100252.88;;;27.79;35.03
40788;BME280;26497;52.494;7.546;2023-06-19T01:07:08;100245.59;;;27.69;34.60
40788;BME280;26497;52.494;7.546;2023-06-19T01:09:43;100245.59;;;27.69;34.72
40788;BME280;26497;52.494;7.546;2023-06-19T01:12:24;100246.09;;;27.74;35.19
40788;BME280;26497;52.494;7.546;2023-06-19T01:14:59;100246.81;;;27.64;35.33
40788;BME280;26497;52.494;7.546;2023-06-19T01:17:29;100241.41;;;27.64;35.00
40788;BME280;26497;52.494;7.546;2023-06-19T01:19:56;100240.91;;;27.59;35.29
40788;BME280;26497;52.494;7.546;2023-06-19T01:22:27;100249.03;;;27.59;35.73
40788;BME280;26497;52.494;7.546;2023-06-19T01:24:54;100244.50;;;27.60;35.75
40788;BME280;26497;52.494;7.546;2023-06-19T01:27:21;100240.41;;;27.54;35.49
40788;BME280;26497;52.494;7.546;2023-06-19T01:29:48;100244.69;;;27.45;35.91
40788;BME280;26497;52.494;7.546;2023-06-19T01:32:20;100250.69;;;27.37;36.15
40788;BME280;26497;52.494;7.546;2023-06-19T01:34:48;100245.25;;;27.26;36.30
40788;BME280;26497;52.494;7.546;2023-06-19T01:37:16;100248.41;;;27.20;37.07
40788;BME280;26497;52.494;7.546;2023-06-19T01:39:45;100247.03;;;27.03;37.54
40788;BME280;26497;52.494;7.546;2023-06-19T01:42:13;100246.19;;;27.02;37.31
40788;BME280;26497;52.494;7.546;2023-06-19T01:44:42;100254.75;;;26.96;37.36
40788;BME280;26497;52.494;7.546;2023-06-19T01:47:10;100250.84;;;27.00;37.25
40788;BME280;26497;52.494;7.546;2023-06-19T01:49:38;100251.31;;;26.94;37.46
40788;BME280;26497;52.494;7.546;2023-06-19T01:52:06;100249.06;;;26.88;37.75
40788;BME280;26497;52.494;7.546;2023-06-19T01:54:33;100241.19;;;26.85;37.58
40788;BME280;26497;52.494;7.546;2023-06-19T01:57:02;100245.50;;;26.87;37.39
40788;BME280;26497;52.494;7.546;2023-06-19T01:59:29;100239.34;;;26.85;38.00
40788;BME280;26497;52.494;7.546;2023-06-19T02:01:56;100241.28;;;26.83;37.77
40788;BME280;26497;52.494;7.546;2023-06-19T02:04:23;100256.13;;;26.77;38.30
40788;BME280;26497;52.494;7.546;2023-06-19T02:06:50;100245.75;;;26.71;38.62
40788;BME280;26497;52.494;7.546;2023-06-19T02:09:17;100250.53;;;26.68;38.58
40788;BME280;26497;52.494;7.546;2023-06-19T02:11:44;100253.22;;;26.68;38.32
40788;BME280;26497;52.494;7.546;2023-06-19T02:14:12;100249.16;;;26.62;38.30
40788;BME280;26497;52.494;7.546;2023-06-19T02:16:39;100255.03;;;26.56;38.84
40788;BME280;26497;52.494;7.546;2023-06-19T02:19:09;100253.00;;;26.46;39.45
40788;BME280;26497;52.494;7.546;2023-06-19T02:21:37;100251.28;;;26.45;39.21
40788;BME280;26497;52.494;7.546;2023-06-19T02:24:05;100254.72;;;26.47;39.33
40788;BME280;26497;52.494;7.546;2023-06-19T02:26:32;100254.50;;;26.50;39.22
40788;BME280;26497;52.494;7.546;2023-06-19T02:28:59;100245.41;;;26.52;39.14
40788;BME280;26497;52.494;7.546;2023-06-19T02:31:27;100246.03;;;26.55;38.91
40788;BME280;26497;52.494;7.546;2023-06-19T02:33:57;100252.91;;;26.48;39.98
40788;BME280;26497;52.494;7.546;2023-06-19T02:36:24;100256.81;;;26.44;40.21
40788;BME280;26497;52.494;7.546;2023-06-19T02:38:51;100253.59;;;26.39;39.74
40788;BME280;26497;52.494;7.546;2023-06-19T02:41:18;100256.81;;;26.44;39.96
40788;BME280;26497;52.494;7.546;2023-06-19T02:43:45;100261.63;;;26.52;39.23
40788;BME280;26497;52.494;7.546;2023-06-19T02:46:13;100256.84;;;26.55;39.08
40788;BME280;26497;52.494;7.546;2023-06-19T02:48:41;100255.63;;;26.59;39.35
40788;BME280;26497;52.494;7.546;2023-06-19T02:51:08;100258.25;;;26.61;39.24
40788;BME280;26497;52.494;7.546;2023-06-19T02:53:35;100267.44;;;26.58;39.89
40788;BME280;26497;52.494;7.546;2023-06-19T02:56:03;100270.59;;;26.52;39.34
40788;BME280;26497;52.494;7.546;2023-06-19T02:58:31;100266.66;;;26.45;40.39
40788;BME280;26497;52.494;7.546;2023-06-19T03:00:58;100273.13;;;26.42;40.41
40788;BME280;26497;52.494;7.546;2023-06-19T03:03:25;100271.88;;;26.22;40.51
40788;BME280;26497;52.494;7.546;2023-06-19T03:05:53;100266.38;;;25.98;41.74
40788;BME280;26497;52.494;7.546;2023-06-19T03:08:20;100270.41;;;25.79;42.21
40788;BME280;26497;52.494;7.546;2023-06-19T03:10:47;100259.19;;;25.59;42.23
40788;BME280;26497;52.494;7.546;2023-06-19T03:13:14;100273.03;;;25.40;42.40
40788;BME280;26497;52.494;7.546;2023-06-19T03:15:41;100277.56;;;25.27;42.91
40788;BME280;26497;52.494;7.546;2023-06-19T03:18:08;100272.13;;;25.14;43.31
40788;BME280;26497;52.494;7.546;2023-06-19T03:20:36;100275.25;;;25.08;43.51
40788;BME280;26497;52.494;7.546;2023-06-19T03:23:05;100273.53;;;25.07;43.47
40788;BME280;26497;52.494;7.546;2023-06-19T03:25:31;100273.72;;;25.03;44.12
40788;BME280;26497;52.494;7.546;2023-06-19T03:28:00;100279.88;;;25.06;44.08
40788;BME280;26497;52.494;7.546;2023-06-19T03:30:28;100275.94;;;25.11;44.02
40788;BME280;26497;52.494;7.546;2023-06-19T03:32:55;100281.00;;;25.16;44.17
40788;BME280;26497;52.494;7.546;2023-06-19T03:35:22;100281.13;;;25.27;44.14
40788;BME280;26497;52.494;7.546;2023-06-19T03:37:49;100280.50;;;25.37;44.46
40788;BME280;26497;52.494;7.546;2023-06-19T03:40:17;100286.28;;;25.45;44.54
40788;BME280;26497;52.494;7.546;2023-06-19T03:42:44;100286.91;;;25.49;44.43
40788;BME280;26497;52.494;7.546;2023-06-19T03:45:11;100280.78;;;25.59;44.45
40788;BME280;26497;52.494;7.546;2023-06-19T03:47:38;100280.56;;;25.75;44.03
40788;BME280;26497;52.494;7.546;2023-06-19T03:50:07;100282.91;;;25.93;43.82
40788;BME280;26497;52.494;7.546;2023-06-19T03:52:35;100272.97;;;26.06;43.12
40788;BME280;26497;52.494;7.546;2023-06-19T03:55:03;100278.03;;;26.11;42.33
40788;BME280;26497;52.494;7.546;2023-06-19T03:57:32;100290.28;;;26.17;41.93
40788;BME280;26497;52.494;7.546;2023-06-19T03:59:59;100287.22;;;26.22;41.54
40788;BME280;26497;52.494;7.546;2023-06-19T04:02:25;100286.13;;;26.11;42.01
40788;BME280;26497;52.494;7.546;2023-06-19T04:04:53;100292.50;;;26.10;42.13
40788;BME280;26497;52.494;7.546;2023-06-19T04:07:20;100286.13;;;26.11;41.92
40788;BME280;26497;52.494;7.546;2023-06-19T04:09:47;100285.38;;;26.09;41.73
40788;BME280;26497;52.494;7.546;2023-06-19T04:12:14;100296.63;;;26.03;41.74
40788;BME280;26497;52.494;7.546;2023-06-19T04:14:42;100286.69;;;26.03;41.58
40788;BME280;26497;52.494;7.546;2023-06-19T04:17:09;100290.81;;;26.22;41.54
40788;BME280;26497;52.494;7.546;2023-06-19T04:19:51;100287.53;;;26.43;41.15
40788;BME280;26497;52.494;7.546;2023-06-19T04:22:18;100282.81;;;26.58;40.84
40788;BME280;26497;52.494;7.546;2023-06-19T04:24:45;100294.09;;;26.76;40.39
40788;BME280;26497;52.494;7.546;2023-06-19T04:27:12;100292.22;;;26.89;40.29
40788;BME280;26497;52.494;7.546;2023-06-19T04:29:39;100292.19;;;27.02;39.70
40788;BME280;26497;52.494;7.546;2023-06-19T04:32:08;100284.47;;;27.20;39.55
40788;BME280;26497;52.494;7.546;2023-06-19T04:34:38;100292.59;;;27.56;38.92
40788;BME280;26497;52.494;7.546;2023-06-19T04:37:05;100296.22;;;27.68;38.53
40788;BME280;26497;52.494;7.546;2023-06-19T04:39:33;100284.88;;;27.86;38.49
40788;BME280;26497;52.494;7.546;2023-06-19T04:42:00;100295.84;;;27.95;38.78
40788;BME280;26497;52.494;7.546;2023-06-19T04:44:28;100298.09;;;28.24;38.40
40788;BME280;26497;52.494;7.546;2023-06-19T04:46:59;100290.53;;;28.62;37.88
40788;BME280;26497;52.494;7.546;2023-06-19T04:49:29;100299.75;;;29.15;37.13
40788;BME280;26497;52.494;7.546;2023-06-19T04:51:57;100300.00;;;29.45;36.45
40788;BME280;26497;52.494;7.546;2023-06-19T04:54:25;100309.34;;;29.83;35.91
40788;BME280;26497;52.494;7.546;2023-06-19T04:56:52;100305.09;;;30.11;35.53
40788;BME280;26497;52.494;7.546;2023-06-19T04:59:20;100304.38;;;29.88;35.73
40788;BME280;26497;52.494;7.546;2023-06-19T05:01:47;100296.81;;;29.39;37.03
40788;BME280;26497;52.494;7.546;2023-06-19T05:04:14;100300.50;;;29.60;36.72
40788;BME280;26497;52.494;7.546;2023-06-19T05:06:44;100300.69;;;29.68;36.66
40788;BME280;26497;52.494;7.546;2023-06-19T05:09:11;100301.13;;;29.94;36.53
40788;BME280;26497;52.494;7.546;2023-06-19T05:11:38;100305.94;;;30.43;36.02
40788;BME280;26497;52.494;7.546;2023-06-19T05:14:05;100316.50;;;30.77;35.35
40788;BME280;26497;52.494;7.546;2023-06-19T05:16:33;100318.09;;;30.49;35.57
40788;BME280;26497;52.494;7.546;2023-06-19T05:19:01;100315.66;;;29.83;36.91
40788;BME280;26497;52.494;7.546;2023-06-19T05:21:29;100328.69;;;29.26;38.22
40788;BME280;26497;52.494;7.546;2023-06-19T05:23:58;100318.22;;;28.89;38.78
40788;BME280;26497;52.494;7.546;2023-06-19T05:26:25;100321.44;;;28.71;39.40
40788;BME280;26497;52.494;7.546;2023-06-19T05:28:52;100322.53;;;29.24;38.78
40788;BME280;26497;52.494;7.546;2023-06-19T05:31:19;100322.34;;;30.00;37.54
40788;BME280;26497;52.494;7.546;2023-06-19T05:33:46;100325.66;;;30.76;36.15
40788;BME280;26497;52.494;7.546;2023-06-19T05:36:13;100326.13;;;31.50;34.98
40788;BME280;26497;52.494;7.546;2023-06-19T05:38:40;100330.78;;;31.87;34.42
40788;BME280;26497;52.494;7.546;2023-06-19T05:41:09;100333.13;;;32.58;33.08
40788;BME280;26497;52.494;7.546;2023-06-19T05:43:37;100325.91;;;33.21;31.97
40788;BME280;26497;52.494;7.546;2023-06-19T05:46:05;100330.69;;;33.37;31.49
40788;BME280;26497;52.494;7.546;2023-06-19T05:48:31;100337.09;;;33.46;31.93
40788;BME280;26497;52.494;7.546;2023-06-19T05:50:59;100342.34;;;34.10;30.46
40788;BME280;26497;52.494;7.546;2023-06-19T05:53:26;100336.00;;;34.09;29.95
40788;BME280;26497;52.494;7.546;2023-06-19T05:55:53;100345.88;;;34.02;30.55
40788;BME280;26497;52.494;7.546;2023-06-19T05:58:22;100350.91;;;34.15;31.00
40788;BME280;26497;52.494;7.546;2023-06-19T06:00:51;100353.25;;;34.79;29.75
40788;BME280;26497;52.494;7.546;2023-06-19T06:03:23;100354.94;;;34.72;29.80
40788;BME280;26497;52.494;7.546;2023-06-19T06:05:50;100352.41;;;34.87;29.63
40788;BME280;26497;52.494;7.546;2023-06-19T06:08:17;100362.06;;;34.57;29.48
40788;BME280;26497;52.494;7.546;2023-06-19T06:10:44;100359.19;;;34.23;29.85
40788;BME280;26497;52.494;7.546;2023-06-19T06:13:11;100370.91;;;34.16;30.42
40788;BME280;26497;52.494;7.546;2023-06-19T06:15:39;100369.78;;;34.61;29.92
40788;BME280;26497;52.494;7.546;2023-06-19T06:18:06;100374.31;;;34.87;30.18
40788;BME280;26497;52.494;7.546;2023-06-19T06:20:33;100377.25;;;34.94;29.72
40788;BME280;26497;52.494;7.546;2023-06-19T06:23:00;100381.75;;;34.60;30.12
40788;BME280;26497;52.494;7.546;2023-06-19T06:25:27;100400.63;;;34.72;30.61
40788;BME280;26497;52.494;7.546;2023-06-19T06:27:54;100399.59;;;34.73;30.52
40788;BME280;26497;52.494;7.546;2023-06-19T06:30:21;100386.53;;;34.58;30.34
40788;BME280;26497;52.494;7.546;2023-06-19T06:32:50;100411.75;;;34.09;31.02
40788;BME280;26497;52.494;7.546;2023-06-19T06:35:17;100390.59;;;33.93;31.84
40788;BME280;26497;52.494;7.546;2023-06-19T06:37:44;100412.13;;;34.14;31.81
40788;BME280;26497;52.494;7.546;2023-06-19T06:40:13;100417.47;;;33.97;31.40
40788;BME280;26497;52.494;7.546;2023-06-19T06:42:40;100414.81;;;33.33;32.72
40788;BME280;26497;52.494;7.546;2023-06-19T06:45:08;100409.56;;;32.86;33.03
40788;BME280;26497;52.494;7.546;2023-06-19T06:47:35;100401.84;;;32.71;33.79
40788;BME280;26497;52.494;7.546;2023-06-19T06:50:05;100417.38;;;32.99;33.97
40788;BME280;26497;52.494;7.546;2023-06-19T06:52:32;100410.09;;;33.53;33.01
40788;BME280;26497;52.494;7.546;2023-06-19T06:55:00;100422.47;;;34.02;32.04
40788;BME280;26497;52.494;7.546;2023-06-19T06:57:28;100411.13;;;33.52;32.49
40788;BME280;26497;52.494;7.546;2023-06-19T06:59:55;100426.78;;;33.68;32.43
40788;BME280;26497;52.494;7.546;2023-06-19T07:02:22;100434.94;;;34.58;31.90
40788;BME280;26497;52.494;7.546;2023-06-19T07:04:49;100431.25;;;35.26;30.19
40788;BME280;26497;52.494;7.546;2023-06-19T07:07:18;100431.00;;;35.87;29.69
40788;BME280;26497;52.494;7.546;2023-06-19T07:09:45;100434.22;;;36.24;28.69
40788;BME280;26497;52.494;7.546;2023-06-19T07:12:12;100449.03;;;34.97;30.36
40788;BME280;26497;52.494;7.546;2023-06-19T07:14:39;100446.81;;;34.40;31.36
40788;BME280;26497;52.494;7.546;2023-06-19T07:17:06;100447.06;;;33.12;33.12
40788;BME280;26497;52.494;7.546;2023-06-19T07:19:33;100449.28;;;32.60;34.35
40788;BME280;26497;52.494;7.546;2023-06-19T07:22:00;100454.50;;;32.54;34.64
40788;BME280;26497;52.494;7.546;2023-06-19T07:24:29;100453.75;;;31.94;35.45
40788;BME280;26497;52.494;7.546;2023-06-19T07:26:56;100457.78;;;31.60;36.23
40788;BME280;26497;52.494;7.546;2023-06-19T07:29:23;100461.72;;;31.27;37.13
40788;BME280;26497;52.494;7.546;2023-06-19T07:31:51;100460.28;;;30.82;38.18
40788;BME280;26497;52.494;7.546;2023-06-19T07:34:18;100459.88;;;30.55;38.49
40788;BME280;26497;52.494;7.546;2023-06-19T07:36:45;100469.00;;;30.23;39.31
40788;BME280;26497;52.494;7.546;2023-06-19T07:39:12;100463.56;;;30.23;39.14
40788;BME280;26497;52.494;7.546;2023-06-19T07:41:40;100479.41;;;30.18;39.54
40788;BME280;26497;52.494;7.546;2023-06-19T07:44:07;100469.31;;;29.87;40.36
40788;BME280;26497;52.494;7.546;2023-06-19T07:46:34;100480.31;;;29.53;41.13
40788;BME280;26497;52.494;7.546;2023-06-19T07:49:01;100482.56;;;29.48;41.18
40788;BME280;26497;52.494;7.546;2023-06-19T07:51:28;100484.53;;;29.46;41.37
40788;BME280;26497;52.494;7.546;2023-06-19T07:53:55;100484.78;;;29.43;41.08
40788;BME280;26497;52.494;7.546;2023-06-19T07:56:22;100484.94;;;29.41;40.99
40788;BME280;26497;52.494;7.546;2023-06-19T07:58:50;100488.75;;;29.39;41.22
40788;BME280;26497;52.494;7.546;2023-06-19T08:01:17;100487.41;;;29.22;41.83
40788;BME280;26497;52.494;7.546;2023-06-19T08:03:45;100490.88;;;29.12;42.59
40788;BME280;26497;52.494;7.546;2023-06-19T08:06:12;100496.81;;;28.95;43.32
40788;BME280;26497;52.494;7.546;2023-06-19T08:08:39;100494.59;;;28.89;43.22
40788;BME280;26497;52.494;7.546;2023-06-19T08:11:06;100505.28;;;28.45;45.01
40788;BME280;26497;52.494;7.546;2023-06-19T08:13:33;100500.47;;;28.37;44.86
40788;BME280;26497;52.494;7.546;2023-06-19T08:16:02;100503.53;;;28.44;45.60
40788;BME280;26497;52.494;7.546;2023-06-19T08:18:29;100504.59;;;28.18;45.56
40788;BME280;26497;52.494;7.546;2023-06-19T08:20:55;100504.31;;;28.57;45.00
40788;BME280;26497;52.494;7.546;2023-06-19T08:23:22;100507.41;;;28.98;44.47
40788;BME280;26497;52.494;7.546;2023-06-19T08:25:49;100511.22;;;29.41;43.40
40788;BME280;26497;52.494;7.546;2023-06-19T08:28:17;100503.88;;;29.64;42.78
40788;BME280;26497;52.494;7.546;2023-06-19T08:30:44;100518.41;;;29.75;42.29
40788;BME280;26497;52.494;7.546;2023-06-19T08:33:14;100517.75;;;29.50;42.93
40788;BME280;26497;52.494;7.546;2023-06-19T08:35:41;100517.78;;;29.38;43.15
40788;BME280;26497;52.494;7.546;2023-06-19T08:38:08;100522.94;;;29.19;43.37
40788;BME280;26497;52.494;7.546;2023-06-19T08:40:35;100519.50;;;28.82;44.06
40788;BME280;26497;52.494;7.546;2023-06-19T08:43:02;100520.44;;;28.47;44.89
40788;BME280;26497;52.494;7.546;2023-06-19T08:45:29;100527.72;;;28.47;45.14
40788;BME280;26497;52.494;7.546;2023-06-19T08:48:00;100529.03;;;28.99;44.19
40788;BME280;26497;52.494;7.546;2023-06-19T08:50:31;100528.38;;;28.96;44.88
40788;BME280;26497;52.494;7.546;2023-06-19T08:52:58;100528.38;;;28.96;44.69
40788;BME280;26497;52.494;7.546;2023-06-19T08:55:26;100530.13;;;28.86;44.42
40788;BME280;26497;52.494;7.546;2023-06-19T08:57:53;100531.72;;;28.88;44.28
40788;BME280;26497;52.494;7.546;2023-06-19T09:00:24;100538.47;;;28.71;45.24
40788;BME280;26497;52.494;7.546;2023-06-19T09:02:52;100532.69;;;28.76;45.04
40788;BME280;26497;52.494;7.546;2023-06-19T09:05:24;100529.47;;;28.70;45.39
40788;BME280;26497;52.494;7.546;2023-06-19T09:07:58;100536.97;;;28.67;45.33
40788;BME280;26497;52.494;7.546;2023-06-19T09:10:27;100547.03;;;28.31;46.21
40788;BME280;26497;52.494;7.546;2023-06-19T09:12:59;100548.53;;;28.35;46.35
40788;BME280;26497;52.494;7.546;2023-06-19T09:15:31;100540.38;;;28.35;46.17
40788;BME280;26497;52.494;7.546;2023-06-19T09:18:03;100549.25;;;28.84;45.28
40788;BME280;26497;52.494;7.546;2023-06-19T09:20:33;100547.31;;;29.76;43.15
40788;BME280;26497;52.494;7.546;2023-06-19T09:23:03;100553.84;;;30.38;42.11
40788;BME280;26497;52.494;7.546;2023-06-19T09:25:30;100557.56;;;30.80;40.01
40788;BME280;26497;52.494;7.546;2023-06-19T09:27:57;100556.88;;;31.18;39.64
40788;BME280;26497;52.494;7.546;2023-06-19T09:30:24;100556.09;;;31.38;38.56
40788;BME280;26497;52.494;7.546;2023-06-19T09:32:51;100546.38;;;31.55;38.15
40788;BME280;26497;52.494;7.546;2023-06-19T09:35:18;100557.13;;;31.46;38.44
40788;BME280;26497;52.494;7.546;2023-06-19T09:37:47;100551.25;;;31.51;38.41
40788;BME280;26497;52.494;7.546;2023-06-19T09:40:17;100551.53;;;31.07;38.45
40788;BME280;26497;52.494;7.546;2023-06-19T09:42:44;100562.34;;;30.87;39.34
40788;BME280;26497;52.494;7.546;2023-06-19T09:45:15;100562.72;;;30.83;39.77
40788;BME280;26497;52.494;7.546;2023-06-19T09:47:46;100560.81;;;29.98;40.92
40788;BME280;26497;52.494;7.546;2023-06-19T09:50:15;100557.59;;;29.61;42.00
40788;BME280;26497;52.494;7.546;2023-06-19T09:52:43;100568.34;;;29.28;43.34
40788;BME280;26497;52.494;7.546;2023-06-19T09:55:12;100566.38;;;29.19;43.95
40788;BME280;26497;52.494;7.546;2023-06-19T09:57:42;100563.91;;;29.61;43.49
40788;BME280;26497;52.494;7.546;2023-06-19T10:00:12;100570.16;;;29.73;42.31
40788;BME280;26497;52.494;7.546;2023-06-19T10:02:48;100569.81;;;29.66;42.55
40788;BME280;26497;52.494;7.546;2023-06-19T10:05:16;100576.47;;;29.74;42.48
40788;BME280;26497;52.494;7.546;2023-06-19T10:07:45;100562.13;;;30.37;41.81
40788;BME280;26497;52.494;7.546;2023-06-19T10:10:24;100571.59;;;31.06;40.17
40788;BME280;26497;52.494;7.546;2023-06-19T10:12:55;100568.06;;;31.66;38.80
40788;BME280;26497;52.494;7.546;2023-06-19T10:15:24;100574.44;;;32.16;37.61
40788;BME280;26497;52.494;7.546;2023-06-19T10:17:53;100570.78;;;32.64;37.39
40788;BME280;26497;52.494;7.546;2023-06-19T10:20:25;100570.78;;;32.74;36.42
40788;BME280;26497;52.494;7.546;2023-06-19T10:23:00;100573.69;;;32.63;36.69
40788;BME280;26497;52.494;7.546;2023-06-19T10:25:33;100577.44;;;32.52;36.76
40788;BME280;26497;52.494;7.546;2023-06-19T10:28:02;100581.88;;;31.74;37.50
40788;BME280;26497;52.494;7.546;2023-06-19T10:30:31;100581.91;;;31.94;37.61
40788;BME280;26497;52.494;7.546;2023-06-19T10:33:00;100586.47;;;32.13;36.63
40788;BME280;26497;52.494;7.546;2023-06-19T10:35:37;100581.19;;;33.08;35.79
40788;BME280;26497;52.494;7.546;2023-06-19T10:38:05;100586.84;;;33.81;34.35
40788;BME280;26497;52.494;7.546;2023-06-19T10:40:32;100576.56;;;34.74;33.02
40788;BME280;26497;52.494;7.546;2023-06-19T10:42:59;100588.22;;;35.45;30.75
40788;BME280;26497;52.494;7.546;2023-06-19T10:45:27;100583.53;;;35.72;29.86
40788;BME280;26497;52.494;7.546;2023-06-19T10:47:55;100581.22;;;36.60;29.25
40788;BME280;26497;52.494;7.546;2023-06-19T10:50:25;100574.44;;;37.52;28.05
40788;BME280;26497;52.494;7.546;2023-06-19T10:52:53;100576.38;;;38.60;26.90
40788;BME280;26497;52.494;7.546;2023-06-19T10:55:21;100575.53;;;38.36;25.96
40788;BME280;26497;52.494;7.546;2023-06-19T10:57:49;100570.75;;;38.53;25.91
40788;BME280;26497;52.494;7.546;2023-06-19T11:00:25;100571.16;;;38.27;26.59
40788;BME280;26497;52.494;7.546;2023-06-19T11:02:54;100578.19;;;37.83;27.25
40788;BME280;26497;52.494;7.546;2023-06-19T11:05:23;100587.38;;;36.70;27.76
40788;BME280;26497;52.494;7.546;2023-06-19T11:07:54;100587.31;;;35.71;29.24
40788;BME280;26497;52.494;7.546;2023-06-19T11:10:24;100580.22;;;35.17;30.09
40788;BME280;26497;52.494;7.546;2023-06-19T11:12:54;100586.34;;;33.95;31.97
40788;BME280;26497;52.494;7.546;2023-06-19T11:15:28;100588.75;;;35.06;32.11
40788;BME280;26497;52.494;7.546;2023-06-19T11:17:57;100583.63;;;36.13;29.13
40788;BME280;26497;52.494;7.546;2023-06-19T11:20:25;100581.03;;;36.37;28.59
40788;BME280;26497;52.494;7.546;2023-06-19T11:22:55;100571.63;;;36.31;28.57
40788;BME280;26497;52.494;7.546;2023-06-19T11:25:23;100578.81;;;36.24;29.35
40788;BME280;26497;52.494;7.546;2023-06-19T11:27:52;100571.38;;;35.83;29.61
40788;BME280;26497;52.494;7.546;2023-06-19T11:30:30;100572.53;;;35.64;28.43
40788;BME280;26497;52.494;7.546;2023-06-19T11:33:00;100575.03;;;36.50;27.24
40788;BME280;26497;52.494;7.546;2023-06-19T11:35:33;100573.88;;;37.57;26.58
40788;BME280;26497;52.494;7.546;2023-06-19T11:38:01;100562.56;;;38.45;23.96
40788;BME280;26497;52.494;7.546;2023-06-19T11:40:28;100576.09;;;38.70;24.02
40788;BME280;26497;52.494;7.546;2023-06-19T11:43:04;100563.88;;;38.87;23.95
40788;BME280;26497;52.494;7.546;2023-06-19T11:45:31;100575.38;;;39.06;23.06
40788;BME280;26497;52.494;7.546;2023-06-19T11:48:05;100572.91;;;39.78;21.80
40788;BME280;26497;52.494;7.546;2023-06-19T11:50:32;100558.88;;;39.79;21.19
40788;BME280;26497;52.494;7.546;2023-06-19T11:52:59;100557.38;;;39.25;21.56
40788;BME280;26497;52.494;7.546;2023-06-19T11:55:27;100571.69;;;37.52;23.51
40788;BME280;26497;52.494;7.546;2023-06-19T11:57:54;100566.38;;;36.86;24.54
40788;BME280;26497;52.494;7.546;2023-06-19T12:00:21;100565.50;;;37.42;23.57
40788;BME280;26497;52.494;7.546;2023-06-19T12:02:48;100558.19;;;38.12;24.23
40788;BME280;26497;52.494;7.546;2023-06-19T12:05:17;100556.28;;;39.04;22.20
40788;BME280;26497;52.494;7.546;2023-06-19T12:07:44;100553.88;;;38.33;22.38
40788;BME280;26497;52.494;7.546;2023-06-19T12:10:11;100559.50;;;36.98;24.30
40788;BME280;26497;52.494;7.546;2023-06-19T12:12:38;100563.19;;;36.66;24.86
40788;BME280;26497;52.494;7.546;2023-06-19T12:15:06;100565.06;;;36.57;24.15
40788;BME280;26497;52.494;7.546;2023-06-19T12:17:34;100566.66;;;36.51;24.63
40788;BME280;26497;52.494;7.546;2023-06-19T12:20:01;100561.97;;;36.68;23.18
40788;BME280;26497;52.494;7.546;2023-06-19T12:22:32;100569.91;;;36.22;23.66
40788;BME280;26497;52.494;7.546;2023-06-19T12:25:00;100573.50;;;36.64;24.57
40788;BME280;26497;52.494;7.546;2023-06-19T12:27:27;100579.53;;;37.15;24.03
40788;BME280;26497;52.494;7.546;2023-06-19T12:29:54;100571.06;;;37.65;22.80
40788;BME280;26497;52.494;7.546;2023-06-19T12:32:21;100571.81;;;38.82;22.73
40788;BME280;26497;52.494;7.546;2023-06-19T12:34:49;100572.63;;;40.16;20.69
40788;BME280;26497;52.494;7.546;2023-06-19T12:37:20;100577.63;;;39.84;20.71
40788;BME280;26497;52.494;7.546;2023-06-19T12:39:50;100571.56;;;39.74;21.28
40788;BME280;26497;52.494;7.546;2023-06-19T12:42:17;100585.31;;;38.77;21.44
40788;BME280;26497;52.494;7.546;2023-06-19T12:44:45;100574.94;;;38.49;21.52
40788;BME280;26497;52.494;7.546;2023-06-19T12:47:13;100578.63;;;37.95;22.07
40788;BME280;26497;52.494;7.546;2023-06-19T12:49:40;100582.34;;;37.79;22.18
40788;BME280;26497;52.494;7.546;2023-06-19T12:52:08;100583.53;;;37.44;23.63
40788;BME280;26497;52.494;7.546;2023-06-19T12:54:35;100586.78;;;37.56;22.76